Princeton/Rocky Hill (39N)
Princeton, NJ
Field Elevation: 128
Lat: 40°23.94N  Long: 74°39.54W
CTAF/Unicom Freq: 122.7250
   
     For Weather-by-Phone, call (609)-924-3901
Weather Advisories
2015-03-29   17:17 Z
Altimeter 30.26" Hg
Wind 320° @ 8 KT
Gusts 14 KT
Visibility 10 SM
Ceiling CLR
Temperature 3° C (37° F)
Dewpoint -14° C (7° F)
Relative Humidity 27%
Density Altitude --
Condensation Altitude 8,700 feet
Wind Chill: -1° C (30° F)
Wind and Runways
Indicated Runway = 28
Headwind = 6 kt
Crosswind = 5 kt
History
 
 
 
More Info
All DigiWx sites map
 
NOAA Forecast
 
Airport IQ 5010
(OCNJ) Ocean City
(PN44) Upper Gwynedd Heliport
 
about DigiWx
 
FAA Disclaimer: The data displayed is for advisory purposes only and is not to be used for flight planning or operations. For official data, please call (609)-924-3901 to hear the current automated AWOS voice message.
  METAR 39N 291717Z AUTO 32008G14KT VIS 10 SM CLR 03/M14 A3026